createdAt,value
2022-09-01T00:01:22.145Z,16.90
2022-09-01T00:03:53.019Z,16.92
2022-09-01T00:06:24.147Z,16.94
2022-09-01T00:08:54.087Z,16.96
2022-09-01T00:12:22.291Z,16.98
2022-09-01T00:16:11.001Z,17.05
2022-09-01T00:19:59.933Z,17.08
2022-09-01T00:23:49.014Z,17.09
2022-09-01T00:26:37.718Z,17.11
2022-09-01T00:29:06.597Z,17.12
2022-09-01T00:31:35.239Z,17.15
2022-09-01T00:34:04.721Z,17.16
2022-09-01T00:36:32.816Z,17.17
2022-09-01T00:39:01.079Z,17.17
2022-09-01T00:41:31.407Z,17.18
2022-09-01T00:44:05.495Z,17.14
2022-09-01T00:46:43.196Z,17.08
2022-09-01T00:49:31.357Z,17.02
2022-09-01T00:52:16.277Z,16.96
2022-09-01T00:54:47.878Z,16.90
2022-09-01T00:57:16.896Z,16.86
2022-09-01T00:59:55.231Z,16.84
2022-09-01T01:02:23.872Z,16.81
2022-09-01T01:04:52.976Z,16.75
2022-09-01T01:07:23.164Z,16.69
2022-09-01T01:09:52.437Z,16.63
2022-09-01T01:12:21.255Z,16.63
2022-09-01T01:14:50.991Z,16.62
2022-09-01T01:17:22.361Z,16.58
2022-09-01T01:20:14.560Z,16.51
2022-09-01T01:23:05.702Z,16.43
2022-09-01T01:25:44.455Z,16.39
2022-09-01T01:28:19.427Z,16.33
2022-09-01T01:31:01.771Z,16.29
2022-09-01T01:33:35.411Z,16.25
2022-09-01T01:36:08.176Z,16.24
2022-09-01T01:39:36.075Z,16.23
2022-09-01T01:42:32.847Z,16.22
2022-09-01T01:46:01.186Z,16.22
2022-09-01T01:49:32.239Z,16.23
2022-09-01T01:52:21.875Z,16.27
2022-09-01T01:55:00.150Z,16.33
2022-09-01T01:57:53.769Z,16.39
2022-09-01T02:04:59.711Z,16.39
2022-09-01T02:07:28.719Z,16.38
2022-09-01T02:10:03.147Z,16.38
2022-09-01T02:13:31.730Z,16.38
2022-09-01T02:17:17.892Z,16.38
2022-09-01T02:20:36.856Z,16.37
2022-09-01T02:24:24.703Z,16.38
2022-09-01T02:28:12.643Z,16.36
2022-09-01T02:32:00.892Z,16.36
2022-09-01T02:35:48.636Z,16.36
2022-09-01T02:39:12.633Z,16.37
2022-09-01T02:42:43.972Z,16.36
2022-09-01T02:46:03.851Z,16.31
2022-09-01T02:49:48.834Z,16.21
2022-09-01T02:53:36.937Z,16.12
2022-09-01T02:57:05.744Z,16.07
2022-09-01T03:00:54.142Z,16.04
2022-09-01T03:04:41.957Z,16.01
2022-09-01T03:08:11.127Z,15.98
2022-09-01T03:11:25.571Z,15.93
2022-09-01T03:13:57.172Z,15.91
2022-09-01T03:16:52.372Z,15.86
2022-09-01T03:19:23.652Z,15.82
2022-09-01T03:21:53.417Z,15.76
2022-09-01T03:25:27.710Z,15.75
2022-09-01T03:29:16.532Z,15.75
2022-09-01T03:33:04.938Z,15.76
2022-09-01T03:36:49.585Z,15.81
2022-09-01T03:40:19.392Z,15.88
2022-09-01T03:42:48.816Z,15.96
2022-09-01T03:45:21.400Z,16.01
2022-09-01T03:47:49.737Z,16.03
2022-09-01T03:50:22.008Z,16.04
2022-09-01T03:53:01.630Z,16.04
2022-09-01T03:55:50.305Z,16.07
2022-09-01T03:58:21.955Z,16.13
2022-09-01T04:00:56.023Z,16.20
2022-09-01T04:03:28.358Z,16.27
2022-09-01T04:06:00.172Z,16.32
2022-09-01T04:08:32.375Z,16.34
2022-09-01T04:11:14.057Z,16.32
2022-09-01T04:13:45.890Z,16.30
2022-09-01T04:16:49.501Z,16.29
2022-09-01T04:19:25.501Z,16.28
2022-09-01T04:21:57.370Z,16.24
2022-09-01T04:24:30.315Z,16.16
2022-09-01T04:27:02.469Z,16.09
2022-09-01T04:29:32.989Z,16.05
2022-09-01T04:32:06.531Z,15.99
2022-09-01T04:34:38.540Z,15.94
2022-09-01T04:37:15.673Z,15.92
2022-09-01T04:39:56.103Z,15.89
2022-09-01T04:42:29.662Z,15.86
2022-09-01T04:45:10.818Z,15.85
2022-09-01T04:48:00.984Z,15.86
2022-09-01T04:51:29.073Z,15.86
2022-09-01T04:55:17.145Z,15.93
2022-09-01T04:59:05.253Z,16.07
2022-09-01T05:02:19.497Z,16.15
2022-09-01T05:05:49.572Z,16.24
2022-09-01T05:09:18.479Z,16.42
2022-09-01T05:12:36.470Z,16.56
2022-09-01T05:15:26.632Z,16.61
2022-09-01T05:18:28.731Z,16.64
2022-09-01T05:21:19.266Z,16.68
2022-09-01T05:24:28.593Z,16.71
2022-09-01T05:27:59.492Z,16.74
2022-09-01T05:31:11.033Z,16.83
2022-09-01T05:34:27.923Z,16.87
2022-09-01T05:37:21.244Z,16.95
2022-09-01T05:40:30.199Z,17.06
2022-09-01T05:43:32.172Z,17.20
2022-09-01T05:46:47.909Z,17.30
2022-09-01T05:49:29.017Z,17.37
2022-09-01T05:52:39.778Z,17.44
2022-09-01T05:56:00.758Z,17.54
2022-09-01T06:02:23.963Z,17.71
2022-09-01T06:05:34.288Z,17.73
2022-09-01T06:09:18.704Z,17.77
2022-09-01T06:12:13.698Z,17.79
2022-09-01T06:15:23.023Z,17.81
2022-09-01T06:18:51.140Z,17.82
2022-09-01T06:21:44.076Z,17.81
2022-09-01T06:24:37.696Z,17.78
2022-09-01T06:27:24.536Z,17.75
2022-09-01T06:29:57.432Z,17.72
2022-09-01T06:32:47.718Z,17.68
2022-09-01T06:35:38.019Z,17.62
2022-09-01T06:38:30.252Z,17.60
2022-09-01T06:41:42.348Z,17.56
2022-09-01T06:44:43.316Z,17.58
2022-09-01T06:47:37.519Z,17.64
2022-09-01T06:54:23.271Z,17.76
2022-09-01T06:58:09.529Z,17.88
2022-09-01T07:06:59.050Z,18.22
2022-09-01T07:14:25.283Z,18.57
2022-09-01T07:17:28.415Z,18.64
2022-09-01T07:25:34.331Z,18.78
2022-09-01T07:29:00.985Z,18.86
2022-09-01T07:32:49.992Z,18.97
2022-09-01T07:37:16.177Z,19.12
2022-09-01T07:42:58.053Z,18.05
2022-09-01T07:44:55.220Z,19.42
2022-09-01T07:49:28.531Z,19.54
2022-09-01T07:53:10.885Z,19.57
2022-09-01T07:57:03.108Z,19.59
2022-09-01T08:00:52.213Z,19.68
2022-09-01T08:04:41.261Z,19.82
2022-09-01T08:08:30.619Z,19.97
2022-09-01T08:12:20.055Z,20.05
2022-09-01T08:16:19.117Z,20.15
2022-09-01T08:20:08.184Z,20.29
2022-09-01T08:24:10.689Z,20.43
2022-09-01T08:28:00.140Z,20.57
2022-09-01T08:31:49.347Z,20.68
2022-09-01T08:35:38.296Z,20.81
2022-09-01T08:39:27.162Z,20.93
2022-09-01T08:43:25.011Z,21.00
2022-09-01T08:47:39.398Z,21.08
2022-09-01T08:51:36.353Z,21.21
2022-09-01T08:55:34.747Z,21.33
2022-09-01T08:59:23.624Z,21.41
2022-09-01T09:03:23.896Z,21.49
2022-09-01T09:07:18.450Z,21.60
2022-09-01T09:11:12.961Z,21.70
2022-09-01T09:14:59.021Z,21.78
2022-09-01T09:18:55.841Z,21.87
2022-09-01T09:22:45.049Z,22.02
2022-09-01T09:26:49.090Z,22.18
2022-09-01T09:30:38.580Z,22.34
2022-09-01T09:34:33.425Z,22.48
2022-09-01T09:38:32.709Z,22.60
2022-09-01T09:42:22.051Z,22.75
2022-09-01T09:46:25.254Z,22.86
2022-09-01T09:50:14.225Z,22.93
2022-09-01T09:54:13.259Z,22.99
2022-09-01T09:58:11.695Z,23.02
2022-09-01T10:02:09.476Z,23.03
2022-09-01T10:06:07.350Z,22.98
2022-09-01T10:09:56.483Z,22.98
2022-09-01T10:13:45.377Z,23.07
2022-09-01T10:17:35.842Z,23.21
2022-09-01T10:21:27.978Z,23.32
2022-09-01T10:25:19.773Z,23.46
2022-09-01T10:29:21.545Z,23.55
2022-09-01T10:33:19.161Z,23.53
2022-09-01T10:37:11.392Z,23.50
2022-09-01T10:40:52.852Z,23.46
2022-09-01T10:43:45.398Z,23.41
2022-09-01T10:46:24.809Z,23.49
2022-09-01T10:49:03.199Z,23.62
2022-09-01T10:51:50.482Z,23.72
2022-09-01T10:54:51.162Z,23.82
2022-09-01T10:57:42.779Z,23.91
2022-09-01T11:00:36.163Z,23.97
2022-09-01T11:06:14.896Z,24.06
2022-09-01T11:08:56.726Z,24.08
2022-09-01T11:11:47.615Z,24.08
2022-09-01T11:14:27.039Z,24.03
2022-09-01T11:17:27.811Z,23.98
2022-09-01T11:20:08.772Z,23.92
2022-09-01T11:22:43.514Z,23.85
2022-09-01T11:26:19.025Z,23.78
2022-09-01T11:28:41.891Z,23.70
2022-09-01T11:31:14.493Z,23.65
2022-09-01T11:33:43.137Z,23.64
2022-09-01T11:36:31.719Z,23.61
2022-09-01T11:39:07.638Z,23.58
2022-09-01T11:41:57.468Z,23.56
2022-09-01T11:44:40.633Z,23.56
2022-09-01T11:47:17.919Z,23.55
2022-09-01T11:49:54.150Z,23.53
2022-09-01T11:52:23.550Z,23.50
2022-09-01T11:54:51.863Z,23.47
2022-09-01T11:57:25.037Z,23.40
2022-09-01T11:59:54.033Z,23.36
2022-09-01T12:02:26.536Z,23.34
2022-09-01T12:04:56.355Z,23.30
2022-09-01T12:07:30.465Z,23.27
2022-09-01T12:09:58.626Z,23.22
2022-09-01T12:12:29.461Z,23.17
2022-09-01T12:15:10.623Z,23.13
2022-09-01T12:17:41.883Z,23.07
2022-09-01T12:20:39.719Z,23.02
2022-09-01T12:23:18.717Z,22.98
2022-09-01T12:25:46.956Z,22.94
2022-09-01T12:28:15.171Z,22.90
2022-09-01T12:30:46.054Z,22.88
2022-09-01T12:33:23.503Z,22.85
2022-09-01T12:35:57.372Z,22.83
2022-09-01T12:38:30.798Z,22.80
2022-09-01T12:40:59.078Z,22.75
2022-09-01T12:43:45.547Z,22.71
2022-09-01T12:46:17.343Z,22.67
2022-09-01T12:48:45.471Z,22.64
2022-09-01T12:51:26.587Z,22.63
2022-09-01T12:53:59.699Z,22.59
2022-09-01T12:56:34.305Z,22.54
2022-09-01T12:59:26.202Z,22.51
2022-09-01T13:02:34.556Z,22.46
2022-09-01T13:05:33.632Z,22.42
2022-09-01T13:08:08.596Z,22.37
2022-09-01T13:10:40.027Z,22.35
2022-09-01T13:13:10.118Z,22.35
2022-09-01T13:15:40.900Z,22.34
2022-09-01T13:18:09.200Z,22.34
2022-09-01T13:20:37.330Z,22.35
2022-09-01T13:23:05.886Z,22.33
2022-09-01T13:25:34.000Z,22.33
2022-09-01T13:28:02.980Z,22.33
2022-09-01T13:30:31.414Z,22.32
2022-09-01T13:35:49.639Z,22.21
2022-09-01T13:38:18.205Z,22.12
2022-09-01T13:40:49.101Z,22.00
2022-09-01T13:43:21.295Z,21.85
2022-09-01T13:46:11.513Z,21.72
2022-09-01T13:52:26.861Z,21.42
2022-09-01T13:55:47.951Z,21.25
2022-09-01T13:58:44.082Z,21.12
2022-09-01T14:02:04.657Z,21.04
2022-09-01T14:04:52.844Z,20.92
2022-09-01T14:08:29.048Z,20.79
2022-09-01T14:12:04.949Z,20.66
2022-09-01T14:15:16.977Z,20.52
2022-09-01T14:18:28.999Z,20.42
2022-09-01T14:21:18.967Z,20.33
2022-09-01T14:23:47.605Z,20.23
2022-09-01T14:26:18.533Z,20.15
2022-09-01T14:29:09.875Z,20.06
2022-09-01T14:31:44.670Z,19.99
2022-09-01T14:34:17.291Z,19.93
2022-09-01T14:37:05.898Z,19.90
2022-09-01T14:39:38.660Z,19.88
2022-09-01T14:42:12.960Z,19.88
2022-09-01T14:44:42.238Z,19.90
2022-09-01T14:47:11.698Z,19.91
2022-09-01T14:49:45.601Z,19.89
2022-09-01T14:52:22.761Z,19.84
2022-09-01T14:54:51.937Z,19.82
2022-09-01T14:57:31.405Z,19.81
2022-09-01T15:00:18.457Z,19.78
2022-09-01T15:02:52.997Z,19.79
2022-09-01T15:05:24.792Z,19.82
2022-09-01T15:07:54.537Z,19.87
2022-09-01T15:10:42.897Z,19.89
2022-09-01T15:13:13.786Z,19.89
2022-09-01T15:15:45.090Z,19.89
2022-09-01T15:18:17.125Z,19.93
2022-09-01T15:20:46.453Z,19.95
2022-09-01T15:23:19.160Z,19.99
2022-09-01T15:26:09.159Z,20.05
2022-09-01T15:29:11.216Z,20.08
2022-09-01T15:31:44.786Z,20.04
2022-09-01T15:34:14.402Z,19.99
2022-09-01T15:37:07.216Z,19.96
2022-09-01T15:39:40.255Z,19.91
2022-09-01T15:43:09.989Z,19.86
2022-09-01T15:46:59.252Z,19.76
2022-09-01T15:50:48.327Z,19.63
2022-09-01T15:53:56.090Z,19.52
2022-09-01T15:57:24.499Z,19.42
2022-09-01T16:00:34.322Z,19.34
2022-09-01T16:04:03.537Z,19.26
2022-09-01T16:07:32.981Z,19.17
2022-09-01T16:11:22.010Z,19.09
2022-09-01T16:15:10.665Z,18.98
2022-09-01T16:19:07.410Z,18.90
2022-09-01T16:23:01.728Z,18.84
2022-09-01T16:26:26.865Z,18.78
2022-09-01T16:29:27.104Z,18.73
2022-09-01T16:31:56.417Z,18.71
2022-09-01T16:35:04.256Z,18.71
2022-09-01T16:38:28.444Z,18.70
2022-09-01T16:42:31.671Z,18.72
2022-09-01T16:46:10.242Z,18.71
2022-09-01T16:49:52.452Z,18.69
2022-09-01T16:53:44.065Z,18.71
2022-09-01T16:57:03.656Z,18.74
2022-09-01T17:00:21.381Z,18.73
2022-09-01T17:03:53.206Z,18.70
2022-09-01T17:07:32.777Z,18.67
2022-09-01T17:11:08.261Z,18.63
2022-09-01T17:14:25.468Z,18.62
2022-09-01T17:17:21.471Z,18.62
2022-09-01T17:20:30.924Z,18.62
2022-09-01T17:24:43.893Z,18.62
2022-09-01T17:28:19.103Z,18.61
2022-09-01T17:32:10.785Z,18.51
2022-09-01T17:35:33.729Z,18.46
2022-09-01T17:39:07.296Z,18.50
2022-09-01T17:42:30.515Z,18.49
2022-09-01T17:45:23.375Z,18.45
2022-09-01T17:48:18.321Z,18.37
2022-09-01T17:51:17.026Z,18.30
2022-09-01T17:54:09.487Z,18.18
2022-09-01T17:57:05.461Z,18.08
2022-09-01T17:59:58.975Z,18.06
2022-09-01T18:02:46.883Z,18.04
2022-09-01T18:05:21.523Z,18.02
2022-09-01T18:08:15.688Z,18.01
2022-09-01T18:10:58.365Z,18.01
2022-09-01T18:13:53.376Z,18.01
2022-09-01T18:16:28.657Z,18.02
2022-09-01T18:19:19.670Z,18.01
2022-09-01T18:21:56.268Z,18.04
2022-09-01T18:25:04.741Z,18.07
2022-09-01T18:27:33.654Z,18.09
2022-09-01T18:30:36.242Z,18.04
2022-09-01T18:33:33.702Z,17.96
2022-09-01T18:36:27.127Z,17.94
2022-09-01T18:39:07.095Z,17.95
2022-09-01T18:41:47.380Z,18.01
2022-09-01T18:44:30.018Z,18.00
2022-09-01T18:47:06.089Z,17.92
2022-09-01T18:49:53.154Z,17.88
2022-09-01T18:52:47.317Z,17.84
2022-09-01T18:55:37.501Z,17.83
2022-09-01T18:58:12.646Z,17.82
2022-09-01T19:01:10.547Z,17.79
2022-09-01T19:04:31.857Z,17.81
2022-09-01T19:08:10.387Z,17.82
2022-09-01T19:12:04.308Z,17.81
2022-09-01T19:15:22.491Z,17.82
2022-09-01T19:19:15.235Z,17.81
2022-09-01T19:22:24.083Z,17.74
2022-09-01T19:25:34.038Z,17.71
2022-09-01T19:29:08.554Z,17.69
2022-09-01T19:32:52.313Z,17.64
2022-09-01T19:35:53.614Z,17.62
2022-09-01T19:39:22.316Z,17.60
2022-09-01T19:42:59.141Z,17.52
2022-09-01T19:46:26.937Z,17.46
2022-09-01T19:49:41.420Z,17.45
2022-09-01T19:53:22.468Z,17.45
2022-09-01T19:56:51.053Z,17.41
2022-09-01T20:00:56.466Z,17.36
2022-09-01T20:04:53.551Z,17.27
2022-09-01T20:08:46.258Z,17.23
2022-09-01T20:12:35.325Z,17.20
2022-09-01T20:16:27.026Z,17.15
2022-09-01T20:20:23.227Z,17.10
2022-09-01T20:24:17.954Z,17.10
2022-09-01T20:28:15.514Z,17.12
2022-09-01T20:32:04.222Z,17.08
2022-09-01T20:35:52.567Z,17.05
2022-09-01T20:39:42.382Z,17.06
2022-09-01T20:43:42.744Z,17.06
2022-09-01T20:47:31.453Z,17.07
2022-09-01T20:51:23.423Z,17.07
2022-09-01T20:55:39.725Z,17.02
2022-09-01T20:59:46.568Z,16.90
2022-09-01T21:03:33.980Z,16.83
2022-09-01T21:07:32.233Z,16.71
2022-09-01T21:11:39.062Z,16.61
2022-09-01T21:15:48.385Z,16.52
2022-09-01T21:19:48.995Z,16.45
2022-09-01T21:23:17.626Z,16.42
2022-09-01T21:27:06.255Z,16.43
2022-09-01T21:30:55.329Z,16.43
2022-09-01T21:34:44.264Z,16.49
2022-09-01T21:38:33.295Z,16.53
2022-09-01T21:42:22.226Z,16.56
2022-09-01T21:46:11.304Z,16.59
2022-09-01T21:49:59.937Z,16.66
2022-09-01T21:53:32.502Z,16.66
2022-09-01T21:57:17.049Z,16.65
2022-09-01T22:01:05.658Z,16.66
2022-09-01T22:04:54.003Z,16.71
2022-09-01T22:08:06.819Z,16.75
2022-09-01T22:11:15.640Z,16.76
2022-09-01T22:14:26.807Z,16.75
2022-09-01T22:17:04.590Z,16.76
2022-09-01T22:20:19.793Z,16.76
2022-09-01T22:23:12.338Z,16.74
2022-09-01T22:26:03.201Z,16.71
2022-09-01T22:29:14.436Z,16.69
2022-09-01T22:33:02.492Z,16.63
2022-09-01T22:36:32.288Z,16.62
2022-09-01T22:40:20.936Z,16.62
2022-09-01T22:44:09.886Z,16.55
2022-09-01T22:47:58.281Z,16.47
2022-09-01T22:51:28.804Z,16.43
2022-09-01T22:55:17.446Z,16.43
2022-09-01T22:59:06.156Z,16.39
2022-09-01T23:02:38.182Z,16.32
2022-09-01T23:06:09.873Z,16.28
2022-09-01T23:09:57.930Z,16.21
2022-09-01T23:13:46.453Z,16.18
2022-09-01T23:17:35.425Z,16.18
2022-09-01T23:21:24.306Z,16.21
2022-09-01T23:25:14.939Z,16.22
2022-09-01T23:29:03.962Z,16.18
2022-09-01T23:32:52.917Z,16.12
2022-09-01T23:36:41.852Z,16.05
2022-09-01T23:40:14.242Z,16.07
2022-09-01T23:44:03.277Z,16.12
2022-09-01T23:47:51.938Z,16.15
2022-09-01T23:51:43.155Z,16.13
2022-09-01T23:55:31.456Z,16.14
2022-09-01T23:59:27.304Z,16.16
